Sunday, May 27, 2018, 5:46 AM EDT
Back to Local

KBGR, Bangor Int'l Airport

Location: Bangor, ME, United States Lat: 44.8
Local Time: 5:46 AM EDT ( 9:46 GMT) Lon: -68.817
Time Zone: US/Eastern Elev: 193 ft

Show me the last for .
Show Decoded

2018-05-27 04:53 METAR KBGR 270853Z 00000KT 10SM FEW070 SCT200 06/05 A3023 RMK AO2 SLP234
                 T00610050 51023 =
2018-05-27 03:53 METAR KBGR 270753Z COR 06004KT 10SM FEW200 08/05 A3020 RMK AO2 SLP226 T00830050
                 =
2018-05-27 02:53 METAR KBGR 270653Z 12005KT 10SM FEW200 10/06 A3019 RMK AO2 SLP220 T01000056 =
2018-05-27 01:53 METAR KBGR 270553Z 11006KT 10SM FEW250 11/06 A3016 RMK AO2 SLP211 T01110061
                 10200 20111 51037 =
2018-05-27 00:53 METAR KBGR 270453Z 12008KT 10SM SCT250 12/06 A3013 RMK AO2 SLP200 T01170056
                 402500117 =
2018-05-26 23:53 METAR KBGR 270353Z 03006KT 10SM BKN250 13/03 A3009 RMK AO2 SLP187 T01330028 =
2018-05-26 22:53 METAR KBGR 270253Z 06005KT 10SM BKN250 15/03 A3005 RMK AO2 SLP174 T01500033
                 51038 =
2018-05-26 21:53 METAR KBGR 270153Z 04004KT 10SM OVC250 16/04 A3002 RMK AO2 SLP165 T01610044 =
2018-05-26 20:53 METAR KBGR 270053Z 04005KT 10SM OVC250 18/04 A2998 RMK AO2 SLP149 T01780039 =
2018-05-26 19:53 METAR KBGR 262353Z 05008KT 10SM FEW140 OVC250 20/04 A2994 RMK AO2 SLP135
                 T02000039 10250 20200 53038 =
2018-05-26 18:53 METAR KBGR 262253Z 01011KT 10SM FEW045 FEW090 FEW140 OVC250 22/06 A2990 RMK AO2
                 SLP122 T02220061 =
2018-05-26 17:53 METAR KBGR 262153Z 35009KT 10SM FEW045 FEW090 SCT140 OVC250 23/03 A2986 RMK AO2
                 SLP108 T02330033 =
2018-05-26 16:53 METAR KBGR 262053Z 35014KT 10SM FEW043 FEW090 BKN140 OVC250 24/03 A2983 RMK AO2
                 SLP097 T02440033 53029 =
2018-05-26 15:53 METAR KBGR 261953Z 02010KT 10SM SCT043 BKN090 BKN140 OVC250 24/09 A2979 RMK AO2
                 SLP085 T02440094 =
2018-05-26 14:53 METAR KBGR 261853Z 35010KT 10SM FEW035 BKN044 BKN070 OVC140 23/16 A2976 RMK AO2
                 SLP075 T02280156 =
2018-05-26 13:53 METAR KBGR 261753Z 31011KT 10SM BKN032 BKN085 OVC140 23/15 A2974 RMK AO2 SLP068
                 T02330150 10239 20200 53010 =
2018-05-26 12:53 METAR KBGR 261653Z 31007KT 10SM SCT032 BKN065 23/17 A2973 RMK AO2 SLP065
                 T02280167 =
2018-05-26 11:53 METAR KBGR 261553Z 30005KT 10SM FEW030 OVC080 23/17 A2972 RMK AO2 SLP059
                 T02280172 =
2018-05-26 10:53 METAR KBGR 261453Z 31003KT 10SM FEW030 OVC080 21/17 A2971 RMK AO2 SLP058
                 T02110172 51018 =
2018-05-26 09:53 METAR KBGR 261353Z 30003KT 10SM FEW030 BKN090 OVC250 21/17 A2969 RMK AO2 SLP051
                 T02060167 =
2018-05-26 08:53 METAR KBGR 261253Z 32004KT 10SM BKN100 OVC250 21/17 A2968 RMK AO2 SLP047
                 T02060167 =
2018-05-26 07:53 METAR KBGR 261153Z 25005KT 10SM FEW080 BKN110 OVC250 20/17 A2966 RMK AO2 SLP038
                 60003 70003 T02000167 10222 20178 51019 =
2018-05-26 06:53 METAR KBGR 261053Z 25003KT 10SM FEW080 OVC110 19/16 A2965 RMK AO2 RAE12 SLP035
                 P0000 T01940156 =
2018-05-26 05:53 METAR KBGR 260953Z 00000KT 10SM -RA FEW080 OVC095 18/17 A2962 RMK AO2 SLP025
                 P0003 T01830167 =

Support USWX by starting your Amazon purchase here.